createdAt,value
2018-12-13T00:00:46.797Z,154.03
2018-12-13T00:03:16.837Z,153.87
2018-12-13T00:05:46.901Z,165.10
2018-12-13T00:08:14.806Z,154.23
2018-12-13T00:10:44.634Z,158.80
2018-12-13T00:13:12.474Z,157.87
2018-12-13T00:15:40.448Z,157.10
2018-12-13T00:18:08.472Z,151.47
2018-12-13T00:20:36.493Z,154.90
2018-12-13T00:23:04.657Z,164.77
2018-12-13T00:25:32.591Z,158.57
2018-12-13T00:28:00.454Z,163.43
2018-12-13T00:30:32.890Z,154.53
2018-12-13T00:33:01.106Z,156.80
2018-12-13T00:35:29.013Z,166.77
2018-12-13T00:37:57.130Z,150.23
2018-12-13T00:40:25.007Z,155.43
2018-12-13T00:42:52.811Z,156.93
2018-12-13T00:45:20.612Z,146.60
2018-12-13T00:47:48.512Z,164.47
2018-12-13T00:50:17.309Z,156.20
2018-12-13T00:52:45.374Z,161.27
2018-12-13T00:55:13.328Z,164.30
2018-12-13T00:57:44.619Z,171.77
2018-12-13T01:00:12.764Z,158.23
2018-12-13T01:02:41.577Z,170.07
2018-12-13T01:05:09.826Z,152.47
2018-12-13T01:07:37.816Z,167.50
2018-12-13T01:10:06.281Z,144.53
2018-12-13T01:12:34.236Z,168.90
2018-12-13T01:15:02.308Z,155.67
2018-12-13T01:17:31.489Z,162.87
2018-12-13T01:20:00.553Z,145.27
2018-12-13T01:22:29.635Z,167.33
2018-12-13T01:24:57.711Z,149.33
2018-12-13T01:27:25.508Z,155.50
2018-12-13T01:29:53.315Z,149.30
2018-12-13T01:32:21.213Z,168.83
2018-12-13T01:34:49.096Z,153.40
2018-12-13T01:37:17.664Z,157.17
2018-12-13T01:39:45.659Z,156.07
2018-12-13T01:42:13.624Z,176.17
2018-12-13T01:44:41.460Z,150.00
2018-12-13T01:47:09.295Z,164.30
2018-12-13T01:49:37.238Z,158.60
2018-12-13T01:52:05.309Z,160.07
2018-12-13T01:54:33.234Z,154.17
2018-12-13T01:57:01.193Z,162.27
2018-12-13T01:59:29.153Z,152.83
2018-12-13T02:01:57.124Z,156.10
2018-12-13T02:04:24.941Z,154.43
2018-12-13T02:06:58.549Z,157.67
2018-12-13T02:09:23.220Z,159.03
2018-12-13T02:11:51.019Z,152.80
2018-12-13T02:14:18.951Z,153.30
2018-12-13T02:16:50.100Z,155.90
2018-12-13T02:19:17.840Z,162.23
2018-12-13T02:21:45.766Z,156.17
2018-12-13T02:24:13.817Z,163.27
2018-12-13T02:26:41.836Z,160.93
2018-12-13T02:29:09.740Z,151.60
2018-12-13T02:31:37.664Z,159.90
2018-12-13T02:34:05.542Z,152.43
2018-12-13T02:36:33.519Z,160.33
2018-12-13T02:39:01.559Z,148.43
2018-12-13T02:41:31.439Z,159.27
2018-12-13T02:43:59.297Z,153.93
2018-12-13T02:46:27.283Z,155.73
2018-12-13T02:49:10.499Z,152.20
2018-12-13T02:51:38.361Z,159.37
2018-12-13T02:54:06.158Z,153.27
2018-12-13T02:56:34.056Z,147.60
2018-12-13T02:59:01.961Z,150.00
2018-12-13T03:01:34.704Z,168.93
2018-12-13T03:04:08.653Z,152.67
2018-12-13T03:06:36.716Z,165.20
2018-12-13T03:09:07.649Z,152.50
2018-12-13T03:11:37.694Z,163.03
2018-12-13T03:14:05.582Z,151.40
2018-12-13T03:16:33.516Z,165.47
2018-12-13T03:19:01.428Z,157.90
2018-12-13T03:21:29.334Z,155.50
2018-12-13T03:23:57.416Z,147.87
2018-12-13T03:26:25.337Z,169.70
2018-12-13T03:28:53.285Z,151.03
2018-12-13T03:31:21.086Z,150.67
2018-12-13T03:33:48.901Z,153.67
2018-12-13T03:36:16.769Z,158.53
2018-12-13T03:38:44.540Z,150.23
2018-12-13T03:41:12.332Z,156.90
2018-12-13T03:43:40.554Z,153.13
2018-12-13T03:46:08.444Z,157.80
2018-12-13T03:48:36.385Z,160.30
2018-12-13T03:51:05.671Z,151.30
2018-12-13T03:53:33.649Z,153.03
2018-12-13T03:56:02.675Z,167.33
2018-12-13T03:58:30.576Z,159.40
2018-12-13T04:00:58.389Z,160.33
2018-12-13T04:03:29.045Z,153.10
2018-12-13T04:05:57.321Z,153.60
2018-12-13T04:08:25.148Z,158.07
2018-12-13T04:10:53.119Z,163.50
2018-12-13T04:13:21.471Z,154.63
2018-12-13T04:15:49.508Z,153.27
2018-12-13T04:18:17.406Z,155.57
2018-12-13T04:20:47.372Z,158.87
2018-12-13T04:23:15.176Z,152.57
2018-12-13T04:25:43.001Z,164.00
2018-12-13T04:28:10.956Z,168.70
2018-12-13T04:30:38.831Z,165.70
2018-12-13T04:33:06.690Z,159.30
2018-12-13T04:35:34.715Z,151.33
2018-12-13T04:38:02.943Z,162.87
2018-12-13T04:40:30.772Z,155.60
2018-12-13T04:42:58.825Z,168.77
2018-12-13T04:45:27.706Z,156.93
2018-12-13T04:47:55.589Z,163.10
2018-12-13T04:50:23.898Z,164.50
2018-12-13T04:52:52.497Z,168.97
2018-12-13T04:55:20.282Z,178.17
2018-12-13T04:57:48.219Z,167.70
2018-12-13T05:00:16.293Z,170.27
2018-12-13T05:02:44.182Z,165.50
2018-12-13T05:05:12.053Z,159.70
2018-12-13T05:07:41.923Z,171.10
2018-12-13T05:10:23.404Z,159.97
2018-12-13T05:12:51.233Z,182.87
2018-12-13T05:15:19.009Z,157.27
2018-12-13T05:17:48.286Z,173.80
2018-12-13T05:20:16.057Z,164.37
2018-12-13T05:22:43.872Z,172.13
2018-12-13T05:25:11.999Z,163.50
2018-12-13T05:27:39.803Z,175.53
2018-12-13T05:30:07.743Z,161.13
2018-12-13T05:32:35.658Z,188.73
2018-12-13T05:35:03.885Z,170.47
2018-12-13T05:37:31.990Z,181.90
2018-12-13T05:40:00.052Z,155.77
2018-12-13T05:42:28.097Z,173.40
2018-12-13T05:44:55.966Z,163.17
2018-12-13T05:47:23.891Z,188.97
2018-12-13T05:49:51.763Z,160.80
2018-12-13T05:52:20.718Z,177.73
2018-12-13T05:54:48.894Z,165.03
2018-12-13T05:57:17.064Z,166.37
2018-12-13T05:59:45.048Z,161.67
2018-12-13T06:02:12.941Z,183.97
2018-12-13T06:04:40.971Z,180.90
2018-12-13T06:07:09.863Z,176.10
2018-12-13T06:09:37.836Z,168.23
2018-12-13T06:12:05.624Z,176.50
2018-12-13T06:14:33.510Z,168.50
2018-12-13T06:17:01.421Z,172.97
2018-12-13T06:19:29.228Z,162.23
2018-12-13T06:21:57.312Z,159.13
2018-12-13T06:24:25.224Z,159.80
2018-12-13T06:26:53.004Z,176.07
2018-12-13T06:29:20.972Z,181.43
2018-12-13T06:31:48.797Z,170.63
2018-12-13T06:34:16.669Z,166.33
2018-12-13T06:36:44.521Z,174.27
2018-12-13T06:39:12.325Z,162.63
2018-12-13T06:41:40.141Z,163.80
2018-12-13T06:44:07.982Z,169.10
2018-12-13T06:46:35.836Z,164.03
2018-12-13T06:49:03.780Z,175.67
2018-12-13T06:51:31.751Z,164.40
2018-12-13T06:54:00.154Z,169.10
2018-12-13T06:56:28.113Z,169.40
2018-12-13T06:58:55.916Z,174.00
2018-12-13T07:01:23.822Z,170.10
2018-12-13T07:03:51.924Z,166.53
2018-12-13T07:06:20.734Z,166.13
2018-12-13T07:08:48.573Z,182.03
2018-12-13T07:11:16.460Z,171.23
2018-12-13T07:13:44.244Z,169.80
2018-12-13T07:16:12.140Z,176.60
2018-12-13T07:18:39.965Z,168.00
2018-12-13T07:21:07.800Z,164.00
2018-12-13T07:23:35.726Z,169.20
2018-12-13T07:26:03.754Z,164.13
2018-12-13T07:28:31.595Z,163.37
2018-12-13T07:30:59.449Z,155.50
2018-12-13T07:33:27.543Z,167.67
2018-12-13T07:35:55.518Z,165.30
2018-12-13T07:38:23.465Z,165.90
2018-12-13T07:40:51.437Z,164.80
2018-12-13T07:43:19.309Z,163.43
2018-12-13T07:45:47.072Z,162.03
2018-12-13T07:48:17.384Z,163.83
2018-12-13T07:50:45.160Z,162.20
2018-12-13T07:53:13.109Z,159.83
2018-12-13T07:55:40.986Z,158.10
2018-12-13T07:58:08.824Z,160.83
2018-12-13T08:00:36.696Z,165.73
2018-12-13T08:03:04.511Z,166.07
2018-12-13T08:05:32.602Z,162.33
2018-12-13T08:08:00.436Z,181.07
2018-12-13T08:10:28.229Z,165.57
2018-12-13T08:12:56.167Z,186.00
2018-12-13T08:15:24.506Z,172.67
2018-12-13T08:17:52.262Z,174.73
2018-12-13T08:20:22.184Z,176.27
2018-12-13T08:22:50.247Z,172.67
2018-12-13T08:25:18.189Z,179.93
2018-12-13T08:27:46.052Z,172.97
2018-12-13T08:30:13.845Z,168.40
2018-12-13T08:32:41.799Z,166.93
2018-12-13T08:35:09.582Z,164.83
2018-12-13T08:39:57.980Z,162.17
2018-12-13T08:42:25.972Z,174.07
2018-12-13T08:44:53.865Z,179.90
2018-12-13T08:47:21.712Z,180.43
2018-12-13T08:49:49.503Z,171.23
2018-12-13T08:52:17.263Z,192.43
2018-12-13T08:54:45.109Z,170.87
2018-12-13T08:57:13.293Z,181.50
2018-12-13T08:59:49.628Z,180.80
2018-12-13T09:02:17.497Z,180.97
2018-12-13T09:04:45.247Z,167.07
2018-12-13T09:07:13.127Z,183.57
2018-12-13T09:09:41.165Z,184.13
2018-12-13T09:12:09.045Z,178.77
2018-12-13T09:14:37.005Z,172.40
2018-12-13T09:17:05.067Z,192.63
2018-12-13T09:19:32.876Z,182.93
2018-12-13T09:22:00.749Z,187.30
2018-12-13T09:24:28.578Z,172.63
2018-12-13T09:26:56.357Z,171.50
2018-12-13T09:29:24.116Z,180.37
2018-12-13T09:31:52.257Z,174.63
2018-12-13T09:34:20.115Z,178.63
2018-12-13T09:36:47.978Z,176.03
2018-12-13T09:39:15.870Z,177.37
2018-12-13T09:41:43.661Z,175.33
2018-12-13T09:44:14.237Z,177.27
2018-12-13T09:46:42.068Z,186.80
2018-12-13T09:49:09.866Z,175.33
2018-12-13T09:51:37.806Z,181.30
2018-12-13T09:54:05.709Z,181.60
2018-12-13T09:56:33.649Z,173.97
2018-12-13T09:59:01.398Z,173.87
2018-12-13T10:01:31.046Z,173.17
2018-12-13T10:03:58.939Z,170.30
2018-12-13T10:06:26.804Z,174.70
2018-12-13T10:08:55.137Z,175.13
2018-12-13T10:11:23.029Z,177.10
2018-12-13T10:13:50.777Z,176.53
2018-12-13T10:16:18.725Z,181.60
2018-12-13T10:18:46.677Z,168.77
2018-12-13T10:21:14.647Z,173.90
2018-12-13T10:23:44.164Z,170.30
2018-12-13T10:26:12.137Z,178.90
2018-12-13T10:28:40.261Z,178.07
2018-12-13T10:31:08.060Z,175.43
2018-12-13T10:33:35.849Z,174.33
2018-12-13T10:36:03.988Z,179.33
2018-12-13T10:38:31.876Z,172.83
2018-12-13T10:40:59.817Z,177.50
2018-12-13T10:43:28.846Z,171.90
2018-12-13T10:45:56.884Z,180.90
2018-12-13T10:48:24.644Z,177.10
2018-12-13T10:50:52.597Z,175.47
2018-12-13T10:53:20.731Z,181.33
2018-12-13T10:55:48.771Z,178.97
2018-12-13T10:58:16.584Z,177.47
2018-12-13T11:00:50.445Z,177.70
2018-12-13T11:03:25.217Z,171.13
2018-12-13T11:05:53.314Z,172.10
2018-12-13T11:08:21.304Z,176.07
2018-12-13T11:10:49.466Z,181.07
2018-12-13T11:13:17.421Z,181.30
2018-12-13T11:15:45.516Z,165.07
2018-12-13T11:18:13.484Z,194.07
2018-12-13T11:20:42.832Z,173.70
2018-12-13T11:23:10.746Z,176.23
2018-12-13T11:25:38.929Z,176.83
2018-12-13T11:29:26.634Z,188.03
2018-12-13T11:31:54.637Z,174.07
2018-12-13T11:34:22.620Z,172.13
2018-12-13T11:36:51.041Z,180.47
2018-12-13T11:39:19.238Z,182.20
2018-12-13T11:41:47.236Z,180.17
2018-12-13T11:44:15.265Z,177.03
2018-12-13T11:46:43.313Z,177.40
2018-12-13T11:49:12.319Z,174.80
2018-12-13T11:51:40.277Z,178.67
2018-12-13T11:54:39.173Z,178.73
2018-12-13T11:57:07.121Z,188.57
2018-12-13T11:59:35.236Z,175.67
2018-12-13T12:02:03.553Z,178.90
2018-12-13T12:04:31.345Z,177.17
2018-12-13T12:06:59.302Z,178.13
2018-12-13T12:09:27.085Z,187.73
2018-12-13T12:11:55.011Z,174.33
2018-12-13T12:14:25.904Z,188.03
2018-12-13T12:16:53.914Z,178.23
2018-12-13T12:19:21.759Z,181.70
2018-12-13T12:21:49.688Z,173.87
2018-12-13T12:24:17.464Z,182.27
2018-12-13T12:26:45.570Z,175.97
2018-12-13T12:29:13.333Z,178.20
2018-12-13T12:31:41.564Z,187.13
2018-12-13T12:34:09.655Z,174.67
2018-12-13T12:36:37.578Z,172.83
2018-12-13T12:39:06.944Z,180.83
2018-12-13T12:41:36.853Z,187.60
2018-12-13T12:44:04.771Z,189.33
2018-12-13T12:46:45.521Z,187.20
2018-12-13T12:49:18.581Z,180.17
2018-12-13T12:51:46.503Z,180.20
2018-12-13T12:54:14.420Z,188.03
2018-12-13T12:56:43.272Z,178.23
2018-12-13T12:59:11.278Z,182.17
2018-12-13T13:01:39.297Z,176.40
2018-12-13T13:04:07.389Z,177.93
2018-12-13T13:06:35.617Z,174.67
2018-12-13T13:09:07.501Z,182.20
2018-12-13T13:11:37.329Z,175.67
2018-12-13T13:14:05.508Z,191.07
2018-12-13T13:16:33.336Z,183.87
2018-12-13T13:19:02.745Z,178.60
2018-12-13T13:21:34.136Z,170.97
2018-12-13T13:24:02.069Z,173.13
2018-12-13T13:26:30.096Z,171.30
2018-12-13T13:28:58.337Z,175.57
2018-12-13T13:31:26.216Z,172.30
2018-12-13T13:33:54.030Z,192.47
2018-12-13T13:36:21.915Z,184.93
2018-12-13T13:38:49.789Z,171.50
2018-12-13T13:41:21.737Z,166.57
2018-12-13T13:43:49.613Z,174.93
2018-12-13T13:46:17.695Z,178.63
2018-12-13T13:48:49.695Z,170.17
2018-12-13T13:51:18.913Z,178.87
2018-12-13T13:53:46.793Z,171.33
2018-12-13T13:56:17.212Z,177.80
2018-12-13T13:58:45.149Z,180.67
2018-12-13T14:01:13.512Z,193.97
2018-12-13T14:03:43.607Z,171.43
2018-12-13T14:06:11.477Z,189.60
2018-12-13T14:08:39.366Z,170.00
2018-12-13T14:11:11.555Z,179.23
2018-12-13T14:13:43.861Z,175.97
2018-12-13T14:16:12.262Z,197.37
2018-12-13T14:18:40.293Z,179.00
2018-12-13T14:21:11.302Z,172.53
2018-12-13T14:23:39.470Z,176.03
2018-12-13T14:26:07.730Z,189.67
2018-12-13T14:28:37.405Z,186.20
2018-12-13T14:31:06.600Z,186.93
2018-12-13T14:33:34.818Z,181.47
2018-12-13T14:36:02.733Z,183.37
2018-12-13T14:38:30.577Z,179.33
2018-12-13T14:41:04.386Z,190.83
2018-12-13T14:43:53.106Z,180.77
2018-12-13T14:46:21.017Z,195.03
2018-12-13T14:48:48.775Z,182.47
2018-12-13T14:51:16.869Z,176.77
2018-12-13T14:53:45.040Z,173.07
2018-12-13T14:56:13.013Z,181.93
2018-12-13T14:58:40.810Z,192.27
2018-12-13T15:01:08.655Z,181.70
2018-12-13T15:03:36.643Z,179.23
2018-12-13T15:06:04.552Z,181.10
2018-12-13T15:08:32.349Z,187.70
2018-12-13T15:11:00.240Z,187.83
2018-12-13T15:13:28.090Z,181.70
2018-12-13T15:15:56.178Z,178.33
2018-12-13T15:18:24.137Z,190.50
2018-12-13T15:20:52.142Z,192.37
2018-12-13T15:23:19.924Z,187.93
2018-12-13T15:25:47.901Z,191.77
2018-12-13T15:28:16.007Z,234.63
2018-12-13T15:30:43.949Z,187.23
2018-12-13T15:33:11.993Z,205.53
2018-12-13T15:35:39.924Z,191.07
2018-12-13T15:38:08.061Z,196.83
2018-12-13T15:40:35.917Z,192.43
2018-12-13T15:43:03.843Z,179.30
2018-12-13T15:45:31.877Z,192.23
2018-12-13T15:48:02.085Z,195.87
2018-12-13T15:50:30.097Z,183.43
2018-12-13T15:52:57.908Z,191.83
2018-12-13T15:55:27.021Z,186.93
2018-12-13T15:57:55.129Z,191.57
2018-12-13T16:00:22.939Z,185.23
2018-12-13T16:02:50.916Z,196.33
2018-12-13T16:05:19.058Z,189.57
2018-12-13T16:07:47.000Z,200.30
2018-12-13T16:10:14.994Z,188.87
2018-12-13T16:12:42.775Z,195.80
2018-12-13T16:15:10.726Z,193.87
2018-12-13T16:17:38.658Z,200.37
2018-12-13T16:20:08.973Z,190.13
2018-12-13T16:22:44.280Z,213.30
2018-12-13T16:25:12.982Z,198.00
2018-12-13T16:27:41.022Z,203.53
2018-12-13T16:30:09.974Z,197.93
2018-12-13T16:32:38.290Z,212.73
2018-12-13T16:35:06.501Z,197.87
2018-12-13T16:37:38.467Z,208.90
2018-12-13T16:40:10.381Z,204.33
2018-12-13T16:42:37.031Z,205.60
2018-12-13T16:45:05.808Z,200.90
2018-12-13T16:47:33.905Z,202.27
2018-12-13T16:50:01.817Z,197.07
2018-12-13T16:52:31.183Z,212.50
2018-12-13T16:54:59.194Z,203.80
2018-12-13T16:57:26.964Z,216.17
2018-12-13T16:59:54.898Z,197.77
2018-12-13T17:02:22.814Z,210.03
2018-12-13T17:04:50.956Z,200.90
2018-12-13T17:07:18.903Z,212.70
2018-12-13T17:09:46.930Z,196.80
2018-12-13T17:12:14.790Z,214.97
2018-12-13T17:14:42.903Z,203.93
2018-12-13T17:17:10.930Z,219.30
2018-12-13T17:19:39.559Z,211.63
2018-12-13T17:22:07.364Z,214.77
2018-12-13T17:24:36.024Z,210.73
2018-12-13T17:27:04.268Z,210.20
2018-12-13T17:29:32.115Z,212.10
2018-12-13T17:32:00.092Z,199.00
2018-12-13T17:34:27.919Z,202.83
2018-12-13T17:36:55.944Z,208.70
2018-12-13T17:39:23.796Z,210.40
2018-12-13T17:41:51.653Z,202.27
2018-12-13T17:44:19.954Z,200.93
2018-12-13T17:46:47.736Z,208.50
2018-12-13T17:49:15.561Z,195.90
2018-12-13T17:51:43.423Z,207.90
2018-12-13T17:54:11.480Z,201.40
2018-12-13T17:56:39.367Z,197.17
2018-12-13T17:59:07.267Z,201.43
2018-12-13T18:01:35.366Z,200.57
2018-12-13T18:04:03.607Z,203.23
2018-12-13T18:06:31.505Z,196.43
2018-12-13T18:08:59.747Z,195.97
2018-12-13T18:11:27.611Z,202.80
2018-12-13T18:13:57.124Z,186.00
2018-12-13T18:16:25.804Z,194.07
2018-12-13T18:18:53.953Z,194.83
2018-12-13T18:21:23.188Z,194.03
2018-12-13T18:23:51.291Z,204.67
2018-12-13T18:26:19.467Z,198.77
2018-12-13T18:29:08.095Z,196.10
2018-12-13T18:31:42.571Z,206.93
2018-12-13T18:34:17.072Z,211.00
2018-12-13T18:36:45.288Z,209.20
2018-12-13T18:39:13.144Z,208.43
2018-12-13T18:41:41.278Z,205.77
2018-12-13T18:44:10.639Z,212.30
2018-12-13T18:46:38.705Z,191.50
2018-12-13T18:49:07.160Z,193.67
2018-12-13T18:51:36.067Z,201.73
2018-12-13T18:54:04.122Z,191.27
2018-12-13T18:56:32.065Z,208.27
2018-12-13T18:59:42.355Z,193.30
2018-12-13T19:02:16.505Z,202.73
2018-12-13T19:04:44.578Z,202.87
2018-12-13T19:07:12.714Z,214.00
2018-12-13T19:09:40.649Z,200.10
2018-12-13T19:12:08.696Z,219.43
2018-12-13T19:14:36.582Z,210.03
2018-12-13T19:17:05.271Z,210.27
2018-12-13T19:19:33.518Z,202.20
2018-12-13T19:22:04.593Z,205.13
2018-12-13T19:24:32.528Z,193.20
2018-12-13T19:27:00.561Z,197.50
2018-12-13T19:29:28.697Z,198.13
2018-12-13T19:31:56.690Z,195.23
2018-12-13T19:34:24.531Z,206.23
2018-12-13T19:36:52.547Z,206.60
2018-12-13T19:39:20.543Z,200.33
2018-12-13T19:41:48.544Z,203.03
2018-12-13T19:44:17.402Z,196.43
2018-12-13T19:46:45.412Z,193.80
2018-12-13T19:49:14.051Z,207.53
2018-12-13T19:51:41.889Z,198.53
2018-12-13T19:54:09.756Z,192.60
2018-12-13T19:56:37.728Z,210.57
2018-12-13T19:59:06.241Z,194.00
2018-12-13T20:01:34.111Z,186.80
2018-12-13T20:04:02.068Z,188.73
2018-12-13T20:06:30.382Z,189.27
2018-12-13T20:08:58.486Z,185.47
2018-12-13T20:11:26.518Z,187.27
2018-12-13T20:13:55.620Z,186.40
2018-12-13T20:16:23.513Z,192.03
2018-12-13T20:18:52.471Z,191.17
2018-12-13T20:21:20.338Z,197.93
2018-12-13T20:23:48.409Z,191.53
2018-12-13T20:26:17.606Z,194.43
2018-12-13T20:28:45.845Z,194.17
2018-12-13T20:31:15.158Z,211.40
2018-12-13T20:33:43.231Z,203.83
2018-12-13T20:36:11.834Z,196.37
2018-12-13T20:38:39.981Z,202.40
2018-12-13T20:41:08.137Z,208.43
2018-12-13T20:43:36.285Z,203.50
2018-12-13T20:46:04.454Z,201.83
2018-12-13T20:48:32.259Z,204.27
2018-12-13T20:51:00.752Z,209.97
2018-12-13T20:53:28.672Z,204.10
2018-12-13T20:55:57.157Z,208.40
2018-12-13T20:58:25.225Z,200.57
2018-12-13T21:00:53.491Z,200.50
2018-12-13T21:03:21.502Z,214.17
2018-12-13T21:05:50.759Z,207.43
2018-12-13T21:08:18.710Z,212.10
2018-12-13T21:10:47.653Z,206.70
2018-12-13T21:13:15.948Z,212.87
2018-12-13T21:18:28.153Z,206.90
2018-12-13T21:20:56.266Z,220.30
2018-12-13T21:23:25.069Z,211.97
2018-12-13T21:28:27.503Z,210.17
2018-12-13T21:30:55.588Z,209.57
2018-12-13T21:33:23.613Z,213.17
2018-12-13T21:35:52.231Z,228.20
2018-12-13T21:38:20.152Z,212.97
2018-12-13T21:40:48.124Z,221.20
2018-12-13T21:43:15.958Z,227.20
2018-12-13T21:45:43.814Z,214.23
2018-12-13T21:48:11.903Z,213.47
2018-12-13T21:50:41.261Z,210.50
2018-12-13T21:53:09.430Z,212.23
2018-12-13T21:55:37.511Z,213.47
2018-12-13T21:58:05.505Z,213.10
2018-12-13T22:00:33.515Z,213.97
2018-12-13T22:03:02.319Z,209.93
2018-12-13T22:05:30.934Z,204.67
2018-12-13T22:07:59.064Z,227.17
2018-12-13T22:10:28.489Z,210.13
2018-12-13T22:12:56.381Z,214.03
2018-12-13T22:15:24.482Z,211.57
2018-12-13T22:17:52.336Z,215.90
2018-12-13T22:20:20.366Z,203.27
2018-12-13T22:22:48.640Z,214.07
2018-12-13T22:25:16.517Z,201.73
2018-12-13T22:27:44.361Z,215.03
2018-12-13T22:30:12.361Z,200.83
2018-12-13T22:32:40.301Z,210.07
2018-12-13T22:35:08.291Z,202.90
2018-12-13T22:37:36.171Z,202.73
2018-12-13T22:40:04.689Z,193.30
2018-12-13T22:42:32.880Z,209.60
2018-12-13T22:45:00.850Z,198.90
2018-12-13T22:47:28.756Z,213.67
2018-12-13T22:49:57.810Z,204.07
2018-12-13T22:52:25.715Z,218.40
2018-12-13T22:54:53.714Z,202.07
2018-12-13T22:57:21.683Z,215.00
2018-12-13T22:59:49.481Z,204.30
2018-12-13T23:02:17.555Z,207.90
2018-12-13T23:04:45.613Z,201.30
2018-12-13T23:07:13.517Z,219.53
2018-12-13T23:09:42.300Z,201.37
2018-12-13T23:12:10.345Z,210.73
2018-12-13T23:14:38.532Z,196.37
2018-12-13T23:17:06.860Z,210.50
2018-12-13T23:19:34.762Z,199.13
2018-12-13T23:22:02.632Z,203.20
2018-12-13T23:24:30.942Z,191.57
2018-12-13T23:26:59.096Z,206.13
2018-12-13T23:29:26.940Z,200.03
2018-12-13T23:31:55.025Z,220.50
2018-12-13T23:34:22.984Z,210.50
2018-12-13T23:36:50.862Z,211.53
2018-12-13T23:39:18.748Z,220.47
2018-12-13T23:41:46.864Z,216.80
2018-12-13T23:44:16.686Z,213.57
2018-12-13T23:46:44.713Z,212.47
2018-12-13T23:49:12.543Z,221.47
2018-12-13T23:51:47.096Z,208.73
2018-12-13T23:54:14.940Z,212.13
2018-12-13T23:56:42.761Z,208.33
2018-12-13T23:59:12.733Z,205.80
